Latest Weather Observations for Barimunya

IDW60801

Issued at 1:02 pm WST Tuesday 7 July 2015 (issued every 30 minutes, with the page automatically refreshed every 10 minutes)

About weather observations | Map of weather stations | Latest weather observations for WA | Other Formats
Station Details ID: 505053 Name: BARIMUNYA Lat: -22.67 Lon: 119.16 Height: 629.17 m
Data from the previous 72 hours. | See also: Recent months for locations in Western Australia
Date/Time
WST
Temp
°C
App
Temp
°C
Dew
Point
Rel
Hum
%
Delta-T
°C
Wind Press
QNH
hPa
Press
MSL
hPa
Rain
since 9 am
mm
Dir
 
Spd
km/h
Gust
km/h
Spd
kts
Gust
kts
07/01:00pm 21.9 16.5 -1.4 21 10.5 E 17 26 9 14 1018.6 1017.4 0.0
07/12:30pm 21.5 16.5 -1.1 22 10.2 E 15 24 8 13 1018.9 1017.7 0.0
07/12:00pm 21.6 15.9 -1.0 22 10.2 ENE 19 26 10 14 1019.4 1018.2 0.0
07/11:30am 21.3 15.3 -1.3 22 10.2 E 20 33 11 18 1019.9 1018.7 0.0
07/11:00am 21.0 15.2 -0.3 24 9.7 E 20 26 11 14 1020.3 1019.1 0.0
07/10:30am 20.6 16.2 0.4 26 9.3 ESE 13 17 7 9 1020.6 1019.5 0.0
07/10:00am 18.5 15.4 1.1 31 8.0 SE 7 11 4 6 1020.8 1019.6 0.0
07/09:30am 16.8 13.9 1.7 36 6.9 S 6 7 3 4 1020.9 1019.7 0.0
07/09:00am 15.8 13.5 2.6 41 6.1 SE 4 11 2 6 1020.8 1019.6 0.0
07/08:30am 13.7 10.8 1.7 44 5.4 SE 6 7 3 4 1020.4 1019.3 0.0
07/08:00am 12.3 10.7 2.5 51 4.4 CALM 0 2 0 1 1020.0 1018.8 0.0
07/07:30am 9.9 8.0 3.0 62 3.1 SE 2 7 1 4 1019.7 1018.5 0.0
07/07:00am 7.5 5.9 2.2 69 2.3 CALM 0 0 0 0 1019.4 1018.2 0.0
07/06:30am 7.1 5.4 1.8 69 2.2 CALM 0 0 0 0 1019.4 1018.2 0.0
07/06:00am 9.5 7.9 2.4 61 3.1 CALM 0 0 0 0 1019.1 1017.9 0.0
07/05:30am 9.2 6.8 2.1 61 3.1 SE 4 7 2 4 1019.1 1017.9 0.0
07/05:00am 9.8 6.5 2.2 59 3.3 SE 9 9 5 5 1018.9 1017.7 0.0
07/04:30am 10.1 6.8 2.5 59 3.4 SE 9 9 5 5 1018.8 1017.6 0.0
07/04:00am 9.9 6.6 2.5 60 3.3 SE 9 9 5 5 1018.6 1017.4 0.0
07/03:30am 8.9 7.2 2.0 62 3.0 CALM 0 9 0 5 1018.6 1017.4 0.0
07/03:00am 10.4 8.8 2.3 57 3.6 CALM 0 0 0 0 1018.6 1017.4 0.0
07/02:30am 11.1 8.3 2.2 54 4.0 SE 6 7 3 4 1018.8 1017.6 0.0
07/02:00am 9.6 8.0 2.5 61 3.1 CALM 0 0 0 0 1019.1 1017.9 0.0
07/01:30am 9.4 7.7 2.0 60 3.2 CALM 0 0 0 0 1019.2 1018.0 0.0
07/01:00am 11.7 8.8 1.6 50 4.4 SE 6 7 3 4 1019.2 1018.0 0.0
07/12:30am 10.8 9.1 2.1 55 3.8 CALM 0 0 0 0 1019.1 1017.9 0.0
07/12:00am 11.1 9.5 2.2 54 3.9 CALM 0 0 0 0 1019.2 1018.0 0.0
 
Date/Time
WST
Temp
°C
App
Temp
°C
Dew
Point
Rel
Hum
%
Delta-T
°C
Wind Press
QNH
hPa
Press
MSL
hPa
Rain
since 9 am
mm
Dir
 
Spd
km/h
Gust
km/h
Spd
kts
Gust
kts
06/11:30pm 11.9 10.2 2.1 51 4.4 CALM 0 0 0 0 1019.5 1018.3 0.0
06/11:00pm 12.0 10.4 2.2 51 4.4 CALM 0 0 0 0 1019.7 1018.5 0.0
06/10:30pm 13.4 11.7 1.7 45 5.2 CALM 0 0 0 0 1019.9 1018.7 0.0
06/10:00pm 13.5 11.8 1.8 45 5.2 CALM 0 0 0 0 1020.1 1018.9 0.0
06/09:30pm 15.4 13.8 2.2 41 6.1 CALM 0 0 0 0 1020.2 1019.0 0.0
06/09:00pm 15.9 14.1 1.2 37 6.6 CALM 0 0 0 0 1020.2 1019.0 0.0
06/08:30pm 16.7 14.9 1.2 35 7.1 CALM 0 0 0 0 1020.2 1019.0 0.0
06/08:00pm 15.3 13.6 2.1 41 6.0 CALM 0 0 0 0 1020.2 1019.0 0.0
06/07:30pm 17.3 15.1 1.3 34 7.3 SE 2 6 1 3 1020.0 1018.8 0.0
06/07:00pm 17.6 14.7 1.2 33 7.5 SE 6 7 3 4 1019.9 1018.7 0.0
06/06:30pm 18.2 15.0 0.8 31 7.9 E 7 9 4 5 1019.5 1018.3 0.0
06/06:00pm 18.8 15.6 0.9 30 8.2 E 7 9 4 5 1019.3 1018.1 0.0
06/05:30pm 20.2 16.6 0.6 27 9.1 E 9 17 5 9 1018.9 1017.7 0.0
06/05:00pm 21.5 17.4 0.1 24 9.9 E 11 15 6 8 1018.6 1017.4 0.0
06/04:30pm 22.1 18.5 0.6 24 10.1 ENE 9 17 5 9 1018.6 1017.4 0.0
06/04:00pm 22.3 18.3 0.2 23 10.3 E 11 17 6 9 1018.7 1017.5 0.0
06/03:30pm 22.3 17.9 0.2 23 10.3 ESE 13 19 7 10 1018.5 1017.3 0.0
06/03:00pm 22.8 18.1 0.6 23 10.5 E 15 22 8 12 1018.5 1017.3 0.0
06/02:30pm 22.3 16.7 0.2 23 10.3 ESE 19 26 10 14 1018.6 1017.4 0.0
06/02:00pm 22.0 16.8 -0.1 23 10.2 ESE 17 24 9 13 1018.7 1017.5 0.0
06/01:30pm 22.0 16.8 -0.1 23 10.2 E 17 24 9 13 1018.9 1017.7 0.0
06/01:00pm 21.5 15.7 0.1 24 9.9 ENE 20 28 11 15 1019.3 1018.1 0.0
06/12:30pm 21.4 15.9 0.6 25 9.7 E 19 30 10 16 1019.5 1018.3 0.0
06/12:00pm 21.2 15.0 -0.1 24 9.8 ESE 22 32 12 17 1020.0 1018.8 0.0
06/11:30am 21.5 15.4 0.7 25 9.8 E 22 32 12 17 1020.5 1019.4 0.0
06/11:00am 21.4 16.1 1.6 27 9.4 ENE 19 26 10 14 1021.0 1019.8 0.0
06/10:30am 20.4 14.9 0.8 27 9.1 ENE 19 26 10 14 1021.2 1020.0 0.0
06/10:00am 19.5 16.0 1.0 29 8.6 E 9 15 5 8 1021.6 1020.4 0.0
06/09:30am 18.1 15.2 1.6 33 7.7 SE 6 9 3 5 1021.5 1020.3 0.0
06/09:00am 15.6 14.0 2.4 41 6.1 CALM 0 0 0 0 1021.3 1020.1 0.0
06/08:30am 14.1 12.5 2.4 45 5.4 CALM 0 0 0 0 1021.2 1020.0 0.0
06/08:00am 12.1 10.6 3.1 54 4.1 CALM 0 0 0 0 1020.9 1019.7 0.0
06/07:30am 9.0 7.4 2.6 64 2.8 CALM 0 0 0 0 1020.5 1019.4 0.0
06/07:00am 8.3 6.8 3.0 69 2.3 CALM 0 0 0 0 1020.1 1018.9 0.0
06/06:30am 8.5 6.9 2.7 67 2.5 CALM 0 0 0 0 1019.9 1018.7 0.0
06/06:00am 9.2 6.6 3.4 67 2.6 SE 6 7 3 4 1019.7 1018.5 0.0
06/05:30am 8.4 6.9 2.8 68 2.5 CALM 0 0 0 0 1019.7 1018.5 0.0
06/05:00am 8.6 5.7 2.8 67 2.5 SE 7 9 4 5 1019.7 1018.5 0.0
06/04:30am 8.7 5.8 2.7 66 2.6 SE 7 7 4 4 1019.6 1018.4 0.0
06/04:00am 8.1 6.2 2.6 68 2.4 SE 2 6 1 3 1019.7 1018.5 0.0
06/03:30am 8.6 7.0 2.4 65 2.7 CALM 0 0 0 0 1019.7 1018.5 0.0
06/03:00am 10.1 8.5 2.7 60 3.3 CALM 0 0 0 0 1019.8 1018.6 0.0
06/02:30am 9.6 8.0 2.5 61 3.1 CALM 0 0 0 0 1019.8 1018.6 0.0
06/02:00am 9.6 8.0 2.5 61 3.1 CALM 0 0 0 0 1020.1 1018.9 0.0
06/01:30am 10.8 9.2 2.4 56 3.7 CALM 0 0 0 0 1020.3 1019.1 0.0
06/01:00am 11.1 9.5 2.4 55 3.9 CALM 0 0 0 0 1020.5 1019.4 0.0
06/12:30am 11.9 9.2 2.6 53 4.2 SE 6 7 3 4 1020.4 1019.3 0.0
06/12:00am 11.3 9.4 2.6 55 3.9 SE 2 6 1 3 1020.6 1019.5 0.0
 
Date/Time
WST
Temp
°C
App
Temp
°C
Dew
Point
Rel
Hum
%
Delta-T
°C
Wind Press
QNH
hPa
Press
MSL
hPa
Rain
since 9 am
mm
Dir
 
Spd
km/h
Gust
km/h
Spd
kts
Gust
kts
05/11:30pm 12.6 11.0 2.5 50 4.6 CALM 0 0 0 0 1020.8 1019.6 0.0
05/11:00pm 11.1 9.6 2.9 57 3.7 CALM 0 0 0 0 1020.8 1019.6 0.0
05/10:30pm 12.1 10.5 2.6 52 4.3 CALM 0 0 0 0 1020.9 1019.7 0.0
05/10:00pm 14.2 11.8 2.1 44 5.5 SE 4 7 2 4 1020.9 1019.7 0.0
05/09:30pm 13.6 12.0 2.5 47 5.1 CALM 0 0 0 0 1021.0 1019.8 0.0
05/09:00pm 13.7 10.9 2.3 46 5.2 SE 6 7 3 4 1021.1 1019.9 0.0
05/08:30pm 14.9 12.4 1.4 40 6.1 SE 4 7 2 4 1021.0 1019.8 0.0
05/08:00pm 14.6 12.7 2.8 45 5.5 SE 2 7 1 4 1020.9 1019.7 0.0
05/07:30pm 15.5 13.8 2.0 40 6.2 CALM 0 0 0 0 1020.6 1019.5 0.0
05/07:00pm 17.5 15.9 2.3 36 7.1 CALM 0 0 0 0 1020.5 1019.4 0.0
05/06:30pm 17.8 16.0 1.3 33 7.6 CALM 0 0 0 0 1020.3 1019.1 0.0
05/06:00pm 19.0 16.0 1.1 30 8.3 SE 6 7 3 4 1020.1 1018.9 0.0
05/05:30pm 20.3 16.7 0.7 27 9.1 SE 9 13 5 7 1020.2 1019.0 0.0
05/05:00pm 21.5 17.4 0.1 24 9.9 SE 11 13 6 7 1020.1 1018.9 0.0
05/04:30pm 22.1 18.4 0.0 23 10.3 S 9 19 5 10 1020.0 1018.8 0.0
05/04:00pm 21.8 18.2 0.4 24 10.0 SE 9 19 5 10 1019.9 1018.7 0.0
05/03:30pm 22.1 17.7 0.6 24 10.1 ESE 13 24 7 13 1020.0 1018.8 0.0
05/03:00pm 22.3 17.9 0.2 23 10.3 SSE 13 20 7 11 1020.2 1019.0 0.0
05/02:30pm 22.2 18.6 0.7 24 10.1 E 9 19 5 10 1020.1 1018.9 0.0
05/02:00pm 22.1 18.5 0.6 24 10.1 E 9 20 5 11 1020.4 1019.3 0.0
05/01:30pm 21.4 16.9 0.0 24 9.9 E 13 22 7 12 1020.8 1019.6 0.0
05/01:00pm 21.1 16.3 0.3 25 9.6 SE 15 22 8 12 1021.1 1019.9 0.0
05/12:30pm 21.1 16.3 0.3 25 9.6 ENE 15 22 8 12 1021.6 1020.4 0.0
05/12:00pm 21.0 15.9 0.8 26 9.4 E 17 26 9 14 1022.0 1020.9 0.0
05/11:30am 21.3 16.2 1.0 26 9.6 E 17 22 9 12 1022.7 1021.5 0.0
05/11:00am 21.3 16.0 1.6 27 9.4 E 19 24 10 13 1022.8 1021.6 0.0
05/10:30am 20.0 16.5 1.4 29 8.7 SE 9 20 5 11 1022.9 1021.7 0.0
05/10:00am 18.5 15.4 1.1 31 8.0 ESE 7 11 4 6 1023.1 1021.9 0.0
05/09:30am 17.2 15.0 1.2 34 7.3 SW 2 9 1 5 1023.4 1022.3 0.0
05/09:00am 15.6 13.8 1.3 38 6.4 CALM 0 0 0 0 1023.2 1022.1 0.0
05/08:30am 14.1 11.2 1.4 42 5.7 WSW 6 7 3 4 1022.9 1021.7 0.0
05/08:00am 12.3 10.7 2.2 50 4.5 CALM 0 0 0 0 1022.8 1021.6 0.0
05/07:30am 10.5 8.8 1.6 54 3.9 CALM 0 0 0 0 1022.5 1021.3 0.0
05/07:00am 9.1 6.6 1.5 59 3.2 ESE 4 6 2 3 1022.3 1021.2 0.0
05/06:30am 9.8 7.3 1.5 56 3.6 ESE 4 6 2 3 1022.0 1020.9 0.0
05/06:00am 10.1 7.1 1.0 53 3.9 ESE 6 7 3 4 1021.9 1020.8 0.0
05/05:30am 10.3 6.8 1.4 54 3.9 ESE 9 9 5 5 1021.8 1020.7 0.0
05/05:00am 10.9 8.0 1.7 53 4.0 ESE 6 7 3 4 1021.4 1020.2 0.0
05/04:30am 10.8 7.4 1.6 53 4.0 ESE 9 9 5 5 1021.2 1020.0 0.0
05/04:00am 9.8 6.9 1.7 57 3.5 ESE 6 7 3 4 1021.1 1019.9 0.0
05/03:30am 10.5 7.6 1.6 54 3.9 ESE 6 7 3 4 1021.1 1019.9 0.0
05/03:00am 10.9 8.0 1.4 52 4.1 ESE 6 7 3 4 1021.2 1020.0 0.0
05/02:30am 11.2 8.2 2.0 53 4.1 ESE 7 9 4 5 1021.4 1020.2 0.0
05/02:00am 11.3 9.7 2.3 54 4.0 CALM 0 0 0 0 1021.5 1020.3 0.0
05/01:30am 10.4 8.8 2.3 57 3.6 CALM 0 0 0 0 1021.6 1020.4 0.0
05/01:00am 11.6 9.9 1.8 51 4.3 CALM 0 0 0 0 1021.6 1020.4 0.0
05/12:30am 10.8 9.1 2.1 55 3.8 CALM 0 0 0 0 1021.7 1020.5 0.0
05/12:00am 10.8 9.2 2.4 56 3.7 CALM 0 0 0 0 1021.7 1020.5 0.0
 
Date/Time
WST
Temp
°C
App
Temp
°C
Dew
Point
Rel
Hum
%
Delta-T
°C
Wind Press
QNH
hPa
Press
MSL
hPa
Rain
since 9 am
mm
Dir
 
Spd
km/h
Gust
km/h
Spd
kts
Gust
kts
04/11:30pm 11.0 9.4 2.6 56 3.8 CALM 0 0 0 0 1021.8 1020.7 0.0
04/11:00pm 12.2 10.4 1.5 48 4.7 CALM 0 0 0 0 1022.0 1020.9 0.0
04/10:30pm 11.6 10.0 2.6 54 4.0 CALM 0 2 0 1 1022.0 1020.9 0.0
04/10:00pm 13.3 11.7 2.2 47 5.0 CALM 0 0 0 0 1022.1 1021.0 0.0
04/09:30pm 12.7 10.9 1.4 46 5.0 CALM 0 0 0 0 1022.1 1021.0 0.0
04/09:00pm 13.6 11.6 2.2 46 5.2 ESE 2 9 1 5 1022.1 1021.0 0.0
04/08:30pm 14.5 12.8 2.1 43 5.7 CALM 0 0 0 0 1021.9 1020.8 0.0
04/08:00pm 16.8 15.0 0.9 34 7.2 CALM 0 0 0 0 1021.8 1020.7 0.0
04/07:30pm 17.5 15.7 1.1 33 7.5 CALM 0 0 0 0 1021.6 1020.4 0.0
04/07:00pm 17.9 14.9 1.0 32 7.7 ESE 6 7 3 4 1021.5 1020.3 0.0
04/06:30pm 17.7 14.7 0.8 32 7.7 ESE 6 7 3 4 1021.3 1020.1 0.0
04/06:00pm 19.1 16.0 0.2 28 8.6 ESE 6 7 3 4 1021.1 1019.9 0.0
04/05:30pm 20.6 16.5 -0.1 25 9.5 ESE 11 15 6 8 1020.9 1019.7 0.0
04/05:00pm 22.0 17.1 -0.7 22 10.4 E 15 20 8 11 1020.9 1019.7 0.0
04/04:30pm 22.6 17.3 -0.8 21 10.8 SE 17 26 9 14 1020.8 1019.6 0.0
04/04:00pm 23.1 18.2 -0.4 21 10.9 E 15 24 8 13 1020.8 1019.6 0.0
04/03:30pm 23.4 17.7 -0.8 20 11.2 SE 19 26 10 14 1020.8 1019.6 0.0
04/03:00pm 23.1 17.7 -1.1 20 11.1 SE 17 26 9 14 1020.9 1019.7 0.0
04/02:30pm 23.0 17.7 -0.5 21 10.9 E 17 26 9 14 1021.1 1019.9 0.0
04/02:00pm 22.9 16.3 -0.6 21 10.8 ESE 24 35 13 19 1021.3 1020.1 0.0
04/01:30pm 22.6 16.6 -1.5 20 10.9 ESE 20 28 11 15 1021.5 1020.3 0.0

Other Formats:

Comma delimited format used in spreadsheet applications
http://www.bom.gov.au/fwo/IDW60801/IDW60801.99313.axf

JavaScript Object Notation format (JSON) in row-major order
http://www.bom.gov.au/fwo/IDW60801/IDW60801.99313.json